Аэропорт: Жуляны. Киев

ICAO: UKKK

METAR:
2020-08-12 05:30:00
UKKK 120530Z 36006MPS CAVOK 17/11 Q1017 R08/70D NOSIG
METAR:
2020-08-12 05:02:00
TAF UKKK 120502Z 1206/1306 35006G12MPS 9999 SCT030 TEMPO 1209/1216 SCT020CB BECMG 1218/1220 33003MPS